Terminal Aerodrome Forecast
Issued by NWS

Home | Current Version | Previous Version | Text Only | Print | Product List | Glossary On
Versions: 1 2 3 4 5 6 7 8 9 10 11 12 13 14 15 16 17 18 19 20 21 22
000
FTUS43 KDTX 181730
TAFMBS
TAF
KMBS 181730Z 1818/1918 23010KT 1SM BR OVC004
      TEMPO 1818/1820 1/4SM FG OVC002
     FM190000 22011KT 4SM BR OVC012
     FM191600 24013KT P6SM OVC015=

USA.gov is the U.S. government's official web portal to all federal, state and local government web resources and services.